Time;durP1;ratioP1;P1;durP2;ratioP2;P2;SDS_P1;SDS_P2;PMS_P1;PMS_P2;Temp;Humidity;BMP_temperature;BMP_pressure;BME280_temperature;BME280_humidity;BME280_pressure;Samples;Min_cycle;Max_cycle;Signal;HPM_P1;HPM_P2
2021/08/22 00:02:29;;;;;;;20.95;18.77;;;;;;;;;;4993402;28;20043;-70
2021/08/22 00:05:14;;;;;;;20.85;18.75;;;;;;;;;;4993305;28;20053;-70
2021/08/22 00:08:00;;;;;;;21.70;19.13;;;;;;;;;;4993215;28;20039;-69
2021/08/22 00:10:45;;;;;;;22.98;17.98;;;;;;;;;;4993229;28;20046;-69
2021/08/22 00:13:30;;;;;;;20.40;18.40;;;;;;;;;;4993208;28;20038;-69
2021/08/22 00:16:16;;;;;;;21.33;19.23;;;;;;;;;;5012737;28;20049;-69
2021/08/22 00:19:01;;;;;;;22.17;19.95;;;;;;;;;;5012519;28;20058;-69
2021/08/22 00:21:46;;;;;;;20.92;18.70;;;;;;;;;;5011990;28;20463;-69
2021/08/22 00:24:32;;;;;;;22.50;20.15;;;;;;;;;;5012364;28;20512;-70
2021/08/22 00:27:17;;;;;;;23.00;20.63;;;;;;;;;;5012502;28;20046;-70
2021/08/22 00:30:02;;;;;;;23.33;20.90;;;;;;;;;;5010696;28;20050;-69
2021/08/22 00:32:48;;;;;;;24.00;21.20;;;;;;;;;;4992893;28;20077;-70
2021/08/22 00:35:34;;;;;;;23.38;20.98;;;;;;;;;;4992628;28;20117;-70
2021/08/22 00:38:19;;;;;;;23.88;21.38;;;;;;;;;;4993007;28;20057;-70
2021/08/22 00:41:05;;;;;;;24.52;21.80;;;;;;;;;;4998986;28;20057;-70
2021/08/22 00:43:51;;;;;;;23.67;21.13;;;;;;;;;;5012260;28;20045;-70
2021/08/22 00:46:36;;;;;;;23.77;21.35;;;;;;;;;;5012354;28;20139;-69
2021/08/22 00:49:22;;;;;;;24.73;22.10;;;;;;;;;;5011162;28;20057;-69
2021/08/22 00:52:08;;;;;;;24.17;21.85;;;;;;;;;;5011408;28;20042;-69
2021/08/22 00:54:53;;;;;;;23.80;21.40;;;;;;;;;;5012035;28;20057;-69
2021/08/22 00:57:38;;;;;;;24.77;22.02;;;;;;;;;;5012162;28;20480;-69
2021/08/22 01:00:24;;;;;;;24.27;21.90;;;;;;;;;;5012213;28;20050;-69
2021/08/22 01:03:13;;;;;;;25.60;22.88;;;;;;;;;;5010750;28;20049;-69
2021/08/22 01:06:22;;;;;;;25.23;22.55;;;;;;;;;;5011175;28;20052;-69
2021/08/22 01:09:15;;;;;;;24.52;22.02;;;;;;;;;;5011037;28;20639;-69
2021/08/22 01:12:02;;;;;;;26.58;22.33;;;;;;;;;;5012157;28;20097;-69
2021/08/22 01:14:49;;;;;;;25.33;22.67;;;;;;;;;;5012052;28;20045;-69
2021/08/22 01:17:34;;;;;;;26.00;23.38;;;;;;;;;;5011890;28;20050;-69
2021/08/22 01:20:33;;;;;;;25.88;23.35;;;;;;;;;;5010541;28;20042;-69
2021/08/22 01:23:19;;;;;;;28.25;25.50;;;;;;;;;;5011045;28;20500;-69
2021/08/22 01:26:04;;;;;;;27.90;25.10;;;;;;;;;;5011141;28;20403;-69
2021/08/22 01:28:49;;;;;;;28.20;25.48;;;;;;;;;;5010865;28;20049;-69
2021/08/22 01:31:39;;;;;;;27.52;24.70;;;;;;;;;;4999836;28;20190;-69
2021/08/22 01:34:24;;;;;;;29.88;26.92;;;;;;;;;;4991044;28;20101;-69
2021/08/22 01:37:10;;;;;;;30.90;27.80;;;;;;;;;;4995027;28;20125;-70
2021/08/22 01:39:55;;;;;;;32.60;29.38;;;;;;;;;;4997291;28;20050;-68
2021/08/22 01:42:41;;;;;;;34.33;30.75;;;;;;;;;;4997730;28;20141;-67
2021/08/22 01:45:26;;;;;;;37.22;33.05;;;;;;;;;;5028594;28;20060;-68
2021/08/22 01:48:15;;;;;;;42.72;37.10;;;;;;;;;;5028589;28;20049;-67
2021/08/22 01:51:00;;;;;;;44.53;36.65;;;;;;;;;;5014654;28;20061;-67
2021/08/22 01:53:45;;;;;;;47.55;37.10;;;;;;;;;;4996364;28;20143;-67
2021/08/22 01:56:34;;;;;;;60.03;43.08;;;;;;;;;;5002895;28;20040;-69
2021/08/22 01:59:19;;;;;;;60.60;40.97;;;;;;;;;;5015150;28;20073;-67
2021/08/22 02:02:05;;;;;;;55.92;40.35;;;;;;;;;;5014259;28;21204;-68
2021/08/22 02:04:52;;;;;;;53.65;40.88;;;;;;;;;;5014860;28;20168;-69
2021/08/22 02:07:37;;;;;;;54.05;40.88;;;;;;;;;;5013939;28;20045;-67
2021/08/22 02:10:24;;;;;;;61.25;41.83;;;;;;;;;;5014024;28;20056;-68
2021/08/22 02:13:10;;;;;;;69.15;44.17;;;;;;;;;;5013627;28;20049;-69
2021/08/22 02:15:55;;;;;;;68.05;46.60;;;;;;;;;;5013944;28;20145;-68
2021/08/22 02:18:41;;;;;;;65.72;45.22;;;;;;;;;;5013748;28;20045;-67
2021/08/22 02:21:26;;;;;;;79.80;49.45;;;;;;;;;;5014994;28;20060;-67
2021/08/22 02:24:11;;;;;;;59.72;42.50;;;;;;;;;;5013307;28;20132;-67
2021/08/22 02:26:56;;;;;;;69.78;47.13;;;;;;;;;;5014738;28;20046;-67
2021/08/22 02:29:48;;;;;;;62.85;44.47;;;;;;;;;;5013758;28;20050;-67
2021/08/22 02:32:33;;;;;;;65.53;45.65;;;;;;;;;;5011677;28;20050;-67
2021/08/22 02:35:19;;;;;;;61.95;43.50;;;;;;;;;;4993846;28;20042;-67
2021/08/22 02:38:04;;;;;;;65.05;44.55;;;;;;;;;;5002825;28;20092;-68
2021/08/22 02:40:49;;;;;;;61.20;42.60;;;;;;;;;;5014487;28;20048;-68
2021/08/22 02:43:35;;;;;;;65.20;45.25;;;;;;;;;;5006162;28;20046;-67
2021/08/22 02:46:20;;;;;;;68.45;45.10;;;;;;;;;;4993154;28;20056;-68
2021/08/22 02:49:05;;;;;;;60.28;44.00;;;;;;;;;;4994241;28;20050;-68
2021/08/22 02:51:51;;;;;;;93.35;50.85;;;;;;;;;;4994641;28;20053;-68
2021/08/22 02:54:37;;;;;;;70.22;45.75;;;;;;;;;;5006895;28;20053;-68
2021/08/22 02:57:22;;;;;;;83.82;50.75;;;;;;;;;;5014241;28;20042;-68
2021/08/22 03:00:09;;;;;;;82.03;49.33;;;;;;;;;;5014105;28;20124;-67
2021/08/22 03:02:54;;;;;;;81.00;47.45;;;;;;;;;;5014261;28;20052;-68
2021/08/22 03:05:40;;;;;;;73.25;47.58;;;;;;;;;;5013014;28;20046;-68
2021/08/22 03:08:25;;;;;;;59.80;43.75;;;;;;;;;;5013836;28;20069;-67
2021/08/22 03:11:10;;;;;;;78.10;47.55;;;;;;;;;;5014103;28;20050;-68
2021/08/22 03:13:56;;;;;;;75.13;46.45;;;;;;;;;;5011068;28;20046;-68
2021/08/22 03:16:41;;;;;;;70.75;48.50;;;;;;;;;;4994359;28;20049;-67
2021/08/22 03:19:26;;;;;;;72.43;47.10;;;;;;;;;;4993980;28;20058;-68
2021/08/22 03:22:12;;;;;;;75.40;48.85;;;;;;;;;;4994286;28;20096;-68
2021/08/22 03:24:59;;;;;;;99.18;56.53;;;;;;;;;;5001289;28;20165;-68
2021/08/22 03:27:44;;;;;;;165.15;69.15;;;;;;;;;;5013670;28;20058;-67
2021/08/22 03:30:30;;;;;;;89.30;53.83;;;;;;;;;;5013571;28;20046;-68
2021/08/22 03:33:15;;;;;;;83.20;51.72;;;;;;;;;;5013628;28;20049;-67
2021/08/22 03:36:01;;;;;;;78.80;50.13;;;;;;;;;;5012555;28;20045;-68
2021/08/22 03:38:47;;;;;;;84.07;54.20;;;;;;;;;;5001452;28;20046;-67
2021/08/22 03:41:34;;;;;;;95.55;55.45;;;;;;;;;;4992882;28;20175;-68
2021/08/22 03:44:20;;;;;;;65.28;47.38;;;;;;;;;;4993822;28;20181;-67
2021/08/22 03:47:06;;;;;;;97.35;56.22;;;;;;;;;;5013088;28;20050;-67
2021/08/22 03:49:51;;;;;;;80.22;50.15;;;;;;;;;;5013314;28;20049;-67
2021/08/22 03:52:36;;;;;;;88.10;53.00;;;;;;;;;;5013651;28;20124;-67
2021/08/22 03:55:22;;;;;;;93.97;53.88;;;;;;;;;;5012625;28;20049;-67
2021/08/22 03:58:07;;;;;;;146.90;64.13;;;;;;;;;;5012813;28;20100;-67
2021/08/22 04:00:54;;;;;;;136.02;65.10;;;;;;;;;;5012980;28;20061;-68
2021/08/22 04:03:40;;;;;;;91.75;54.90;;;;;;;;;;5012865;28;20050;-68
2021/08/22 04:06:25;;;;;;;111.10;58.20;;;;;;;;;;5003781;28;20038;-68
2021/08/22 04:09:12;;;;;;;121.03;58.70;;;;;;;;;;4993162;28;20054;-68
2021/08/22 04:11:58;;;;;;;119.55;57.17;;;;;;;;;;4993304;28;20038;-67
2021/08/22 04:14:43;;;;;;;88.70;49.40;;;;;;;;;;4993251;28;20046;-68
2021/08/22 04:17:28;;;;;;;110.55;53.90;;;;;;;;;;5005489;28;20393;-68
2021/08/22 04:20:14;;;;;;;104.03;54.05;;;;;;;;;;5012849;28;20112;-68
2021/08/22 04:22:59;;;;;;;105.13;57.55;;;;;;;;;;5012738;28;20050;-68
2021/08/22 04:25:45;;;;;;;130.65;64.65;;;;;;;;;;4998642;28;20045;-68
2021/08/22 04:28:31;;;;;;;115.68;63.10;;;;;;;;;;4993029;28;20050;-68
2021/08/22 04:31:16;;;;;;;130.27;67.25;;;;;;;;;;4992987;28;20042;-68
2021/08/22 04:34:01;;;;;;;135.88;65.43;;;;;;;;;;4992561;28;20116;-68
2021/08/22 04:36:47;;;;;;;104.82;61.70;;;;;;;;;;4993103;28;20113;-68
2021/08/22 04:39:33;;;;;;;94.72;56.40;;;;;;;;;;4992777;28;20050;-68
2021/08/22 04:42:18;;;;;;;106.45;61.05;;;;;;;;;;4992842;28;20038;-68
2021/08/22 04:45:03;;;;;;;94.43;59.67;;;;;;;;;;5009847;28;20131;-68
2021/08/22 04:47:48;;;;;;;81.13;52.45;;;;;;;;;;5011238;28;20052;-68
2021/08/22 04:50:33;;;;;;;87.63;53.95;;;;;;;;;;5012304;28;20540;-68
2021/08/22 04:53:19;;;;;;;81.60;51.97;;;;;;;;;;5012488;28;20129;-67
2021/08/22 04:56:04;;;;;;;75.72;50.28;;;;;;;;;;4992771;28;20097;-68
2021/08/22 04:58:50;;;;;;;102.20;57.88;;;;;;;;;;4991562;28;20046;-68
2021/08/22 05:01:36;;;;;;;69.38;48.22;;;;;;;;;;4992551;28;20184;-68
2021/08/22 05:04:21;;;;;;;84.28;52.15;;;;;;;;;;4992248;28;20047;-68
2021/08/22 05:07:07;;;;;;;100.18;57.30;;;;;;;;;;4992679;28;20489;-67
2021/08/22 05:09:53;;;;;;;132.85;66.93;;;;;;;;;;4992913;28;20046;-67
2021/08/22 05:12:38;;;;;;;98.38;56.53;;;;;;;;;;4996856;28;20043;-67
2021/08/22 05:15:24;;;;;;;91.90;53.90;;;;;;;;;;5007202;28;20100;-67
2021/08/22 05:18:09;;;;;;;86.20;53.50;;;;;;;;;;5016352;28;20052;-68
2021/08/22 05:20:55;;;;;;;82.78;51.88;;;;;;;;;;5063155;23;20442;-64
2021/08/22 05:23:40;;;;;;;82.70;50.95;;;;;;;;;;5035537;28;20073;-65
2021/08/22 05:26:26;;;;;;;80.30;51.42;;;;;;;;;;5034019;28;20092;-65
2021/08/22 05:29:12;;;;;;;97.95;58.78;;;;;;;;;;5035950;28;20049;-64
2021/08/22 05:31:57;;;;;;;106.28;60.58;;;;;;;;;;5016259;28;20052;-65
2021/08/22 05:34:43;;;;;;;94.43;58.00;;;;;;;;;;5015182;28;20046;-65
2021/08/22 05:37:28;;;;;;;97.30;58.97;;;;;;;;;;5016581;28;20045;-65
2021/08/22 05:40:14;;;;;;;124.40;63.20;;;;;;;;;;5016034;28;20128;-65
2021/08/22 05:42:59;;;;;;;144.13;67.38;;;;;;;;;;5016090;28;20108;-64
2021/08/22 05:45:44;;;;;;;122.13;64.53;;;;;;;;;;5014320;28;20061;-64
2021/08/22 05:48:31;;;;;;;122.15;62.58;;;;;;;;;;5015650;28;20046;-64
2021/08/22 05:51:20;;;;;;;128.55;63.85;;;;;;;;;;5015234;28;20384;-64
2021/08/22 05:54:05;;;;;;;88.43;55.10;;;;;;;;;;5013192;28;20046;-64
2021/08/22 05:56:50;;;;;;;105.50;60.50;;;;;;;;;;5012785;28;20050;-65
2021/08/22 05:59:36;;;;;;;92.90;55.65;;;;;;;;;;5014131;28;20042;-65
2021/08/22 06:02:21;;;;;;;93.43;54.72;;;;;;;;;;5015379;28;20045;-65
2021/08/22 06:05:07;;;;;;;66.03;43.47;;;;;;;;;;5015579;28;20504;-64
2021/08/22 06:07:52;;;;;;;76.55;48.22;;;;;;;;;;5013716;28;20046;-65
2021/08/22 06:10:39;;;;;;;70.45;45.85;;;;;;;;;;5015372;28;20504;-64
2021/08/22 06:13:26;;;;;;;69.38;45.28;;;;;;;;;;5014842;28;20495;-65
2021/08/22 06:16:11;;;;;;;49.72;38.22;;;;;;;;;;5014286;28;20050;-66
2021/08/22 06:18:59;;;;;;;53.40;38.08;;;;;;;;;;4995658;28;20056;-65
2021/08/22 06:21:44;;;;;;;68.68;45.60;;;;;;;;;;5014433;28;20068;-64
2021/08/22 06:24:29;;;;;;;60.15;43.38;;;;;;;;;;5014497;28;20053;-64
2021/08/22 06:27:16;;;;;;;80.93;49.63;;;;;;;;;;5009074;28;20143;-64
2021/08/22 06:30:02;;;;;;;69.75;47.47;;;;;;;;;;4993998;28;20053;-64
2021/08/22 06:32:47;;;;;;;66.50;45.08;;;;;;;;;;4995051;28;20039;-64
2021/08/22 06:35:32;;;;;;;49.17;37.45;;;;;;;;;;4995016;28;20047;-64
2021/08/22 06:38:18;;;;;;;56.00;38.88;;;;;;;;;;4997993;28;20559;-65
2021/08/22 06:41:03;;;;;;;57.47;41.13;;;;;;;;;;5014390;28;20570;-64
2021/08/22 06:43:49;;;;;;;56.50;41.83;;;;;;;;;;5014334;28;20424;-64
2021/08/22 06:46:34;;;;;;;47.25;33.22;;;;;;;;;;5014271;28;20500;-64
2021/08/22 06:49:19;;;;;;;40.03;31.00;;;;;;;;;;5009894;28;20115;-64
2021/08/22 06:52:05;;;;;;;46.10;33.03;;;;;;;;;;5014463;28;20077;-64
2021/08/22 06:54:50;;;;;;;46.35;33.63;;;;;;;;;;5014063;28;20046;-64
2021/08/22 06:57:36;;;;;;;45.58;34.53;;;;;;;;;;5013589;28;20060;-66
2021/08/22 07:00:21;;;;;;;44.65;32.25;;;;;;;;;;4997709;28;20045;-64
2021/08/22 07:03:15;;;;;;;44.10;32.97;;;;;;;;;;5030831;28;20052;-64
2021/08/22 07:06:00;;;;;;;54.53;36.70;;;;;;;;;;5033756;28;20049;-65
2021/08/22 07:08:46;;;;;;;46.03;35.10;;;;;;;;;;5019617;28;20165;-64
2021/08/22 07:11:31;;;;;;;42.53;33.92;;;;;;;;;;4994227;28;20511;-65
2021/08/22 07:14:17;;;;;;;43.13;34.03;;;;;;;;;;4994058;28;20046;-65
2021/08/22 07:17:02;;;;;;;45.35;35.63;;;;;;;;;;4994469;28;20046;-65
2021/08/22 07:19:48;;;;;;;48.20;35.95;;;;;;;;;;4994969;28;20058;-65
2021/08/22 07:22:33;;;;;;;48.03;37.13;;;;;;;;;;4994141;28;20125;-65
2021/08/22 07:25:20;;;;;;;52.05;38.97;;;;;;;;;;4993899;28;20038;-66
2021/08/22 07:28:06;;;;;;;53.10;40.55;;;;;;;;;;4994037;28;20508;-64
2021/08/22 07:30:52;;;;;;;49.05;37.33;;;;;;;;;;5011341;28;20046;-65
2021/08/22 07:33:37;;;;;;;45.35;36.63;;;;;;;;;;5012780;28;20056;-65
2021/08/22 07:36:23;;;;;;;48.35;38.45;;;;;;;;;;5013452;28;20133;-65
2021/08/22 07:39:08;;;;;;;46.83;36.55;;;;;;;;;;5011572;28;20053;-65
2021/08/22 07:41:53;;;;;;;41.83;34.70;;;;;;;;;;5013248;28;20507;-65
2021/08/22 07:44:38;;;;;;;44.17;36.38;;;;;;;;;;5013032;28;20142;-65
2021/08/22 07:47:24;;;;;;;39.40;33.92;;;;;;;;;;5013271;28;20165;-65
2021/08/22 07:50:14;;;;;;;42.72;35.38;;;;;;;;;;5006287;28;20077;-65
2021/08/22 07:53:00;;;;;;;38.28;32.15;;;;;;;;;;4994170;28;20053;-66
2021/08/22 07:55:45;;;;;;;37.15;31.75;;;;;;;;;;4993223;28;20397;-65
2021/08/22 07:58:31;;;;;;;37.35;33.38;;;;;;;;;;4993664;28;20070;-67
2021/08/22 08:01:16;;;;;;;37.67;33.58;;;;;;;;;;5005579;28;20057;-66
2021/08/22 08:04:03;;;;;;;40.47;34.65;;;;;;;;;;5012778;28;20416;-66
2021/08/22 08:06:49;;;;;;;39.03;34.60;;;;;;;;;;5013139;28;20057;-65
2021/08/22 08:09:34;;;;;;;39.38;34.60;;;;;;;;;;5013024;28;20056;-66
2021/08/22 08:12:19;;;;;;;34.63;30.92;;;;;;;;;;5011919;28;20053;-65
2021/08/22 08:15:05;;;;;;;35.78;32.00;;;;;;;;;;5010610;28;20759;-68
2021/08/22 08:17:52;;;;;;;34.47;30.95;;;;;;;;;;4993221;28;20083;-68
2021/08/22 08:20:38;;;;;;;32.55;29.10;;;;;;;;;;4997821;28;20520;-67
2021/08/22 08:23:23;;;;;;;31.88;28.73;;;;;;;;;;5012545;28;20120;-65
2021/08/22 08:26:08;;;;;;;31.33;28.17;;;;;;;;;;5002246;28;20137;-67
2021/08/22 08:28:54;;;;;;;31.45;28.15;;;;;;;;;;4992918;28;20039;-67
2021/08/22 08:31:39;;;;;;;31.70;28.50;;;;;;;;;;5005120;28;20053;-68
2021/08/22 08:34:25;;;;;;;29.67;26.75;;;;;;;;;;5012197;28;20042;-68
2021/08/22 08:37:10;;;;;;;32.58;29.10;;;;;;;;;;4996660;28;20101;-68
2021/08/22 08:39:56;;;;;;;30.42;27.17;;;;;;;;;;4992663;28;20516;-67
2021/08/22 08:43:00;;;;;;;29.05;26.00;;;;;;;;;;4992889;28;20046;-67
2021/08/22 08:45:53;;;;;;;21.98;19.77;;;;;;;;;;4994144;28;20062;-67
2021/08/22 08:48:43;;;;;;;20.13;18.15;;;;;;;;;;5011532;28;20405;-68
2021/08/22 08:51:47;;;;;;;9.18;8.40;;;;;;;;;;5012170;28;20050;-68
2021/08/22 08:54:35;;;;;;;7.43;6.72;;;;;;;;;;5011935;28;20041;-68
2021/08/22 08:57:20;;;;;;;7.00;6.40;;;;;;;;;;5010967;28;20046;-68
2021/08/22 09:00:10;;;;;;;7.20;6.60;;;;;;;;;;5007981;28;20112;-68
2021/08/22 09:02:56;;;;;;;6.93;6.32;;;;;;;;;;4992569;28;20061;-68
2021/08/22 09:05:56;;;;;;;6.85;6.25;;;;;;;;;;4992410;28;20182;-68
2021/08/22 09:08:42;;;;;;;6.35;5.85;;;;;;;;;;4993485;28;20181;-68
2021/08/22 09:11:45;;;;;;;5.10;4.68;;;;;;;;;;4992576;28;20057;-68
2021/08/22 09:14:49;;;;;;;4.28;3.88;;;;;;;;;;4992231;28;20048;-68
2021/08/22 09:17:44;;;;;;;3.88;2.83;;;;;;;;;;4998768;28;20411;-69
2021/08/22 09:20:30;;;;;;;2.72;2.50;;;;;;;;;;5011921;28;20077;-69
2021/08/22 09:23:27;;;;;;;3.10;2.53;;;;;;;;;;5012019;28;20124;-69
2021/08/22 09:26:18;;;;;;;2.90;2.70;;;;;;;;;;5011979;28;20053;-69
2021/08/22 09:29:12;;;;;;;3.67;2.85;;;;;;;;;;4998318;28;20514;-69
2021/08/22 09:32:17;;;;;;;3.15;2.90;;;;;;;;;;5011711;28;20100;-68
2021/08/22 09:35:15;;;;;;;4.05;3.72;;;;;;;;;;5011516;28;20543;-68
2021/08/22 09:38:18;;;;;;;5.55;5.07;;;;;;;;;;5011889;28;20046;-68
2021/08/22 09:41:07;;;;;;;7.93;7.22;;;;;;;;;;4995491;28;20042;-68
2021/08/22 09:44:11;;;;;;;8.63;7.93;;;;;;;;;;4992081;28;20050;-68
2021/08/22 09:47:15;;;;;;;9.05;8.25;;;;;;;;;;4992153;28;20049;-68
2021/08/22 09:50:17;;;;;;;9.77;8.98;;;;;;;;;;4996139;28;20034;-69
2021/08/22 09:53:21;;;;;;;10.43;9.63;;;;;;;;;;5001939;28;20046;-68
2021/08/22 09:56:24;;;;;;;11.13;10.02;;;;;;;;;;5002898;28;20077;-69
2021/08/22 09:59:28;;;;;;;7.68;6.63;;;;;;;;;;5005936;28;20081;-68
2021/08/22 10:02:16;;;;;;;8.23;7.47;;;;;;;;;;5006858;28;20704;-68
2021/08/22 10:05:05;;;;;;;7.25;6.07;;;;;;;;;;5005026;28;20049;-69
2021/08/22 10:08:19;;;;;;;5.57;4.97;;;;;;;;;;5005074;28;20119;-69
2021/08/22 10:11:05;;;;;;;7.75;4.10;;;;;;;;;;4999933;28;20065;-69
2021/08/22 10:13:50;;;;;;;5.32;3.67;;;;;;;;;;5005358;28;20168;-69
2021/08/22 10:16:37;;;;;;;4.93;4.50;;;;;;;;;;5004764;28;20041;-69
2021/08/22 10:19:25;;;;;;;4.07;3.72;;;;;;;;;;4997609;28;20100;-70
2021/08/22 10:22:12;;;;;;;3.92;3.50;;;;;;;;;;5003651;28;20054;-69
2021/08/22 10:25:03;;;;;;;6.00;3.70;;;;;;;;;;5002288;28;20065;-69
2021/08/22 10:27:49;;;;;;;3.27;2.63;;;;;;;;;;5001797;28;20045;-69
2021/08/22 10:30:42;;;;;;;3.72;3.42;;;;;;;;;;5003111;28;20069;-70
2021/08/22 10:33:28;;;;;;;3.25;2.90;;;;;;;;;;5005479;28;20495;-68
2021/08/22 10:36:42;;;;;;;4.35;3.40;;;;;;;;;;5012206;28;20057;-69
2021/08/22 10:39:30;;;;;;;4.65;2.75;;;;;;;;;;5013001;28;20057;-69
2021/08/22 10:42:19;;;;;;;3.17;2.78;;;;;;;;;;5008715;28;20065;-69
2021/08/22 10:45:05;;;;;;;3.22;2.95;;;;;;;;;;5011078;28;20514;-70
2021/08/22 10:47:50;;;;;;;3.85;3.45;;;;;;;;;;5010754;28;20058;-69
2021/08/22 10:50:56;;;;;;;3.38;2.55;;;;;;;;;;4991046;28;20489;-70
2021/08/22 10:53:46;;;;;;;2.83;2.63;;;;;;;;;;5008267;28;20046;-68
2021/08/22 10:56:36;;;;;;;3.70;2.75;;;;;;;;;;5010501;28;20147;-70
2021/08/22 10:59:21;;;;;;;2.72;2.53;;;;;;;;;;5012371;28;20048;-69
2021/08/22 11:02:10;;;;;;;2.63;2.42;;;;;;;;;;5010191;28;20524;-69
2021/08/22 11:04:55;;;;;;;2.53;1.98;;;;;;;;;;5010975;28;20049;-70
2021/08/22 11:07:40;;;;;;;2.88;1.80;;;;;;;;;;5010473;28;20065;-70
2021/08/22 11:10:29;;;;;;;1.98;1.77;;;;;;;;;;5011492;28;20053;-67
2021/08/22 11:13:17;;;;;;;1.42;1.33;;;;;;;;;;5009716;28;20416;-70
2021/08/22 11:16:02;;;;;;;1.98;1.52;;;;;;;;;;5009392;28;20064;-69
2021/08/22 11:18:48;;;;;;;1.67;1.50;;;;;;;;;;5009402;28;20099;-69
2021/08/22 11:21:33;;;;;;;2.10;1.30;;;;;;;;;;5009956;28;20068;-70
2021/08/22 11:24:18;;;;;;;2.13;1.40;;;;;;;;;;5008512;28;20066;-68
2021/08/22 11:27:04;;;;;;;2.17;1.30;;;;;;;;;;4987820;28;20193;-70
2021/08/22 11:29:55;;;;;;;3.38;1.50;;;;;;;;;;4991526;28;20101;-70
2021/08/22 11:32:49;;;;;;;1.85;1.55;;;;;;;;;;4991171;28;20069;-69
2021/08/22 11:35:38;;;;;;;2.20;1.92;;;;;;;;;;4999497;28;20505;-68
2021/08/22 11:38:23;;;;;;;2.70;2.30;;;;;;;;;;5008990;28;20131;-70
2021/08/22 11:41:11;;;;;;;6.60;2.28;;;;;;;;;;4998087;28;20050;-69
2021/08/22 11:43:56;;;;;;;2.60;2.40;;;;;;;;;;5009278;28;20041;-68
2021/08/22 11:46:42;;;;;;;3.80;2.65;;;;;;;;;;5006300;28;20523;-70
2021/08/22 11:49:27;;;;;;;2.60;2.40;;;;;;;;;;5009960;28;20060;-69
2021/08/22 11:52:12;;;;;;;2.33;2.10;;;;;;;;;;5007369;28;20072;-68
2021/08/22 11:54:57;;;;;;;3.60;2.50;;;;;;;;;;5009158;28;20048;-70
2021/08/22 11:57:43;;;;;;;2.30;2.08;;;;;;;;;;4990451;28;20095;-69
2021/08/22 12:00:28;;;;;;;2.45;2.25;;;;;;;;;;4991663;28;20124;-70
2021/08/22 12:03:14;;;;;;;3.30;2.63;;;;;;;;;;4990288;28;20112;-69
2021/08/22 12:06:00;;;;;;;3.45;2.75;;;;;;;;;;4993091;28;20041;-69
2021/08/22 12:08:47;;;;;;;3.60;2.72;;;;;;;;;;5010666;28;20147;-67
2021/08/22 12:11:33;;;;;;;3.13;2.30;;;;;;;;;;5009913;28;20057;-69
2021/08/22 12:14:19;;;;;;;3.97;2.80;;;;;;;;;;5010720;28;20045;-70
2021/08/22 12:17:06;;;;;;;2.90;2.70;;;;;;;;;;4999869;28;20061;-70
2021/08/22 12:19:51;;;;;;;2.70;2.50;;;;;;;;;;4990217;28;20165;-70
2021/08/22 12:22:36;;;;;;;3.58;2.58;;;;;;;;;;4989982;28;20054;-70
2021/08/22 12:25:25;;;;;;;2.65;2.28;;;;;;;;;;5005045;28;20849;-70
2021/08/22 12:28:29;;;;;;;2.63;2.28;;;;;;;;;;5008227;28;20432;-70
2021/08/22 12:31:15;;;;;;;2.30;1.77;;;;;;;;;;5010589;28;20089;-69
2021/08/22 12:34:07;;;;;;;3.92;1.73;;;;;;;;;;5008693;28;20520;-69
2021/08/22 12:36:53;;;;;;;2.03;1.75;;;;;;;;;;5008195;28;20064;-70
2021/08/22 12:39:38;;;;;;;2.03;1.50;;;;;;;;;;5006046;28;20176;-69
2021/08/22 12:42:23;;;;;;;2.10;1.60;;;;;;;;;;5010660;28;20527;-70
2021/08/22 12:45:12;;;;;;;2.30;2.13;;;;;;;;;;5010004;28;20053;-69
2021/08/22 12:47:58;;;;;;;2.50;1.90;;;;;;;;;;5008014;28;20404;-70
2021/08/22 12:50:43;;;;;;;1.75;1.52;;;;;;;;;;5010686;28;20056;-67
2021/08/22 12:53:29;;;;;;;2.03;1.83;;;;;;;;;;5010001;28;20060;-68
2021/08/22 12:56:14;;;;;;;2.20;2.08;;;;;;;;;;5010314;28;20057;-67
2021/08/22 12:58:59;;;;;;;2.90;1.85;;;;;;;;;;5008661;28;20518;-68
2021/08/22 13:01:45;;;;;;;2.33;2.13;;;;;;;;;;5007214;28;20100;-68
2021/08/22 13:04:30;;;;;;;2.00;1.80;;;;;;;;;;5008836;28;20806;-67
2021/08/22 13:07:15;;;;;;;2.60;2.40;;;;;;;;;;5006523;28;20052;-68
2021/08/22 13:10:01;;;;;;;3.72;2.15;;;;;;;;;;4998588;28;20100;-67
2021/08/22 13:12:46;;;;;;;2.42;1.88;;;;;;;;;;4999361;28;20045;-71
2021/08/22 13:15:39;;;;;;;1.42;1.33;;;;;;;;;;5019133;28;20093;-71
2021/08/22 13:18:24;;;;;;;1.55;1.45;;;;;;;;;;4951284;28;20065;-67
2021/08/22 13:21:11;;;;;;;1.60;1.38;;;;;;;;;;4970474;28;20058;-67
2021/08/22 13:23:56;;;;;;;3.25;1.70;;;;;;;;;;4970286;28;20520;-67
2021/08/22 13:26:41;;;;;;;1.60;1.50;;;;;;;;;;4946938;28;20057;-67
2021/08/22 13:29:26;;;;;;;2.17;1.98;;;;;;;;;;4970394;28;20520;-67
2021/08/22 13:32:12;;;;;;;2.40;2.20;;;;;;;;;;4973230;28;20101;-67
2021/08/22 13:34:57;;;;;;;2.55;2.38;;;;;;;;;;4973773;28;20053;-67
2021/08/22 13:37:42;;;;;;;2.83;2.63;;;;;;;;;;4974905;28;20057;-66
2021/08/22 13:40:27;;;;;;;2.88;2.67;;;;;;;;;;4969008;28;20413;-68
2021/08/22 13:43:13;;;;;;;2.45;2.25;;;;;;;;;;4974809;28;20543;-66
2021/08/22 13:45:58;;;;;;;2.65;2.45;;;;;;;;;;4973897;28;20050;-67
2021/08/22 13:48:43;;;;;;;2.97;2.65;;;;;;;;;;4974328;28;20046;-68
2021/08/22 13:51:29;;;;;;;2.60;2.40;;;;;;;;;;4973894;28;20166;-67
2021/08/22 13:54:14;;;;;;;2.97;2.78;;;;;;;;;;4973967;28;20058;-67
2021/08/22 13:56:59;;;;;;;3.05;2.80;;;;;;;;;;4973619;28;20057;-66
2021/08/22 13:59:44;;;;;;;3.20;3.00;;;;;;;;;;4973148;28;20067;-67
2021/08/22 14:02:30;;;;;;;3.70;3.40;;;;;;;;;;4973683;28;20555;-67
2021/08/22 14:05:15;;;;;;;3.60;3.30;;;;;;;;;;4973820;28;20061;-69
2021/08/22 14:08:00;;;;;;;3.67;3.38;;;;;;;;;;4973626;28;20047;-68
2021/08/22 14:10:46;;;;;;;4.35;3.95;;;;;;;;;;4972828;28;20045;-67
2021/08/22 14:13:31;;;;;;;4.30;4.00;;;;;;;;;;4972970;28;20050;-67
2021/08/22 14:16:16;;;;;;;3.63;3.33;;;;;;;;;;4973760;28;20587;-67
2021/08/22 14:19:02;;;;;;;3.28;2.97;;;;;;;;;;4971581;28;20518;-68
2021/08/22 14:21:47;;;;;;;3.15;2.95;;;;;;;;;;4971938;28;20045;-69
2021/08/22 14:24:33;;;;;;;3.08;2.88;;;;;;;;;;4966901;28;20062;-67
2021/08/22 14:27:18;;;;;;;2.90;2.70;;;;;;;;;;4973220;28;20512;-67
2021/08/22 14:30:04;;;;;;;3.28;2.97;;;;;;;;;;4972826;28;20193;-67
2021/08/22 14:32:49;;;;;;;2.85;2.60;;;;;;;;;;4967809;28;20497;-68
2021/08/22 14:35:35;;;;;;;2.78;2.58;;;;;;;;;;4972893;28;20449;-68
2021/08/22 14:38:20;;;;;;;8.18;2.70;;;;;;;;;;4973364;28;20041;-68
2021/08/22 14:41:05;;;;;;;2.10;2.00;;;;;;;;;;4966967;28;20156;-68
2021/08/22 14:43:50;;;;;;;2.40;2.20;;;;;;;;;;4972426;28;20133;-68
2021/08/22 14:46:36;;;;;;;1.75;1.65;;;;;;;;;;4973011;28;20050;-68
2021/08/22 14:49:21;;;;;;;1.83;1.73;;;;;;;;;;4973522;28;20082;-68
2021/08/22 14:52:07;;;;;;;2.20;2.10;;;;;;;;;;4971654;28;20863;-68
2021/08/22 14:54:52;;;;;;;1.67;1.58;;;;;;;;;;4970475;28;20134;-68
2021/08/22 14:57:37;;;;;;;1.88;1.63;;;;;;;;;;4973572;28;20529;-68
2021/08/22 15:00:22;;;;;;;1.33;1.23;;;;;;;;;;4972008;28;20051;-68
2021/08/22 15:03:08;;;;;;;1.38;1.27;;;;;;;;;;4972281;28;20101;-68
2021/08/22 15:05:53;;;;;;;1.20;1.10;;;;;;;;;;4972253;28;20073;-68
2021/08/22 15:08:38;;;;;;;1.35;1.25;;;;;;;;;;4973032;28;20045;-68
2021/08/22 15:11:23;;;;;;;1.42;1.33;;;;;;;;;;4962550;28;20051;-68
2021/08/22 15:14:08;;;;;;;1.52;1.42;;;;;;;;;;4952774;28;20524;-68
2021/08/22 15:16:54;;;;;;;1.50;1.40;;;;;;;;;;4952506;28;20125;-68
2021/08/22 15:19:39;;;;;;;1.70;1.60;;;;;;;;;;4953499;28;20047;-70
2021/08/22 15:22:25;;;;;;;1.70;1.60;;;;;;;;;;4967649;28;20121;-70
2021/08/22 15:25:10;;;;;;;2.30;2.10;;;;;;;;;;4971960;28;20520;-70
2021/08/22 15:27:55;;;;;;;2.22;2.13;;;;;;;;;;4972137;28;20512;-67
2021/08/22 15:30:42;;;;;;;2.63;2.42;;;;;;;;;;4972225;28;20066;-67
2021/08/22 15:33:28;;;;;;;2.78;2.58;;;;;;;;;;4972162;28;20049;-67
2021/08/22 15:36:14;;;;;;;2.60;2.40;;;;;;;;;;4972380;28;20046;-68
2021/08/22 15:39:00;;;;;;;3.30;3.00;;;;;;;;;;4971934;28;20133;-68
2021/08/22 15:41:45;;;;;;;3.28;2.97;;;;;;;;;;4971226;28;20148;-68
2021/08/22 15:44:33;;;;;;;3.47;3.17;;;;;;;;;;4972309;28;20101;-67
2021/08/22 15:47:19;;;;;;;3.67;3.38;;;;;;;;;;4974686;28;20055;-67
2021/08/22 15:50:04;;;;;;;3.35;3.05;;;;;;;;;;4974387;28;20050;-68
2021/08/22 15:52:50;;;;;;;3.53;3.22;;;;;;;;;;4964605;28;20054;-67
2021/08/22 15:55:35;;;;;;;2.92;2.72;;;;;;;;;;4960008;28;20050;-67
2021/08/22 15:58:20;;;;;;;3.47;3.17;;;;;;;;;;4963532;28;20065;-69
2021/08/22 16:01:06;;;;;;;3.38;2.97;;;;;;;;;;4962294;28;20042;-67
2021/08/22 16:03:51;;;;;;;2.85;2.65;;;;;;;;;;4959683;28;20093;-67
2021/08/22 16:06:36;;;;;;;3.63;3.42;;;;;;;;;;4964340;28;20460;-66
2021/08/22 16:09:21;;;;;;;3.58;3.28;;;;;;;;;;4960598;28;20115;-67
2021/08/22 16:12:07;;;;;;;3.30;3.05;;;;;;;;;;4969312;28;20405;-68
2021/08/22 16:14:52;;;;;;;3.17;2.97;;;;;;;;;;4968808;28;20038;-69
2021/08/22 16:17:38;;;;;;;3.30;2.70;;;;;;;;;;4970990;28;20053;-67
2021/08/22 16:20:23;;;;;;;4.32;3.95;;;;;;;;;;4964767;28;20045;-67
2021/08/22 16:23:09;;;;;;;3.50;3.30;;;;;;;;;;4959961;28;20074;-66
2021/08/22 16:25:54;;;;;;;3.80;3.50;;;;;;;;;;4971054;28;20412;-68